Time;durP1;ratioP1;P1;durP2;ratioP2;P2;SDS_P1;SDS_P2;PMS_P1;PMS_P2;Temp;Humidity;BMP_temperature;BMP_pressure;BME280_temperature;BME280_humidity;BME280_pressure;Samples;Min_cycle;Max_cycle;Signal;HPM_P1;HPM_P2
2022/09/23 00:00:12;;;;;;;9.63;7.22;;;;;;;6.27;100.00;100210.69;5091823;28;20098;-79
2022/09/23 00:02:37;;;;;;;12.63;7.15;;;;;;;6.25;100.00;100215.06;5090753;28;20024;-79
2022/09/23 00:05:03;;;;;;;10.65;7.32;;;;;;;6.29;100.00;100221.03;5091680;28;20016;-79
2022/09/23 00:07:28;;;;;;;11.13;6.35;;;;;;;6.24;100.00;100210.78;5091741;28;20090;-80
2022/09/23 00:09:55;;;;;;;9.85;6.55;;;;;;;6.20;100.00;100215.16;5091930;28;20089;-79
2022/09/23 00:12:20;;;;;;;8.45;6.63;;;;;;;6.21;100.00;100219.44;5091527;28;20016;-79
2022/09/23 00:14:46;;;;;;;10.80;6.70;;;;;;;6.18;100.00;100214.31;5091796;28;20024;-79
2022/09/23 00:17:12;;;;;;;8.50;6.07;;;;;;;6.25;100.00;100230.56;5091943;28;20403;-80
2022/09/23 00:19:39;;;;;;;8.57;5.85;;;;;;;6.23;100.00;100215.06;5092050;28;20028;-80
2022/09/23 00:22:04;;;;;;;11.35;6.68;;;;;;;6.15;100.00;100206.63;5091511;28;20513;-79
2022/09/23 00:24:31;;;;;;;9.23;5.85;;;;;;;6.19;100.00;100205.69;5091702;28;20024;-79
2022/09/23 00:26:58;;;;;;;8.65;6.20;;;;;;;6.17;100.00;100209.19;5091599;28;20057;-80
2022/09/23 00:29:23;;;;;;;7.65;6.03;;;;;;;6.15;100.00;100206.63;5090173;28;20024;-79
2022/09/23 00:31:49;;;;;;;8.07;5.60;;;;;;;6.10;100.00;100202.41;5091646;28;20027;-79
2022/09/23 00:34:14;;;;;;;7.05;5.60;;;;;;;6.11;100.00;100212.75;5090151;28;20056;-79
2022/09/23 00:36:39;;;;;;;7.30;5.55;;;;;;;6.07;100.00;100205.94;5091937;28;20020;-80
2022/09/23 00:39:05;;;;;;;10.32;5.85;;;;;;;6.05;100.00;100197.31;5091692;28;20112;-80
2022/09/23 00:41:31;;;;;;;8.15;5.72;;;;;;;6.07;100.00;100192.13;5091483;28;20078;-79
2022/09/23 00:43:59;;;;;;;7.68;5.55;;;;;;;6.07;100.00;100200.75;5091485;28;20059;-79
2022/09/23 00:46:27;;;;;;;10.18;5.97;;;;;;;6.05;100.00;100202.50;5094303;28;20012;-79
2022/09/23 00:49:03;;;;;;;7.88;5.28;;;;;;;6.00;100.00;100200.00;5095488;28;20036;-79
2022/09/23 00:51:36;;;;;;;10.48;6.22;;;;;;;5.95;100.00;100186.31;5095095;28;20364;-79
2022/09/23 00:54:02;;;;;;;6.57;5.25;;;;;;;5.95;100.00;100183.72;5095045;28;20032;-79
2022/09/23 00:56:30;;;;;;;8.85;5.57;;;;;;;5.95;100.00;100191.50;5095050;28;20102;-79
2022/09/23 00:58:56;;;;;;;9.50;6.10;;;;;;;5.91;100.00;100181.22;5095297;28;20020;-79
2022/09/23 01:01:23;;;;;;;8.15;5.35;;;;;;;5.93;100.00;100190.66;5094888;28;20016;-79
2022/09/23 01:03:50;;;;;;;7.85;5.60;;;;;;;5.95;100.00;100198.41;5095073;28;20032;-79
2022/09/23 01:06:16;;;;;;;9.00;6.05;;;;;;;5.92;100.00;100188.09;5094669;28;20044;-80
2022/09/23 01:08:44;;;;;;;9.20;6.22;;;;;;;5.86;100.00;100178.72;5095048;28;20372;-79
2022/09/23 01:11:28;;;;;;;9.30;6.15;;;;;;;5.80;100.00;100173.63;5094853;28;20024;-79
2022/09/23 01:13:53;;;;;;;8.10;5.88;;;;;;;5.85;100.00;100184.75;5094969;28;20032;-79
2022/09/23 01:16:21;;;;;;;6.60;5.70;;;;;;;5.86;100.00;100185.63;5094553;28;20051;-79
2022/09/23 01:19:12;;;;;;;9.50;6.55;;;;;;;5.72;100.00;100160.84;5094771;28;20027;-79
2022/09/23 01:22:07;;;;;;;9.43;6.15;;;;;;;5.83;100.00;100181.34;5094778;28;20368;-79
2022/09/23 01:24:46;;;;;;;6.30;5.28;;;;;;;5.80;100.00;100173.63;5015209;28;20372;-79
2022/09/23 01:27:30;;;;;;;6.50;5.47;;;;;;;5.75;100.00;100175.47;5031905;28;20513;-79
2022/09/23 01:29:55;;;;;;;8.48;5.32;;;;;;;5.72;100.00;100180.69;5031891;28;20116;-79
2022/09/23 01:32:36;;;;;;;8.52;5.60;;;;;;;5.63;100.00;100162.75;5032070;28;20105;-79
2022/09/23 01:35:15;;;;;;;7.63;5.70;;;;;;;5.68;100.00;100169.53;5031791;28;20033;-79
2022/09/23 01:37:49;;;;;;;8.98;5.90;;;;;;;5.66;100.00;100171.31;5031841;28;20076;-79
2022/09/23 01:40:46;;;;;;;9.80;6.30;;;;;;;5.62;100.00;100164.50;5031601;28;20091;-79
2022/09/23 01:43:20;;;;;;;11.95;5.50;;;;;;;5.58;100.00;100156.84;5031587;28;20044;-79
2022/09/23 01:45:48;;;;;;;7.07;5.07;;;;;;;5.46;100.00;100140.66;5031774;28;20029;-79
2022/09/23 01:48:22;;;;;;;6.45;5.57;;;;;;;5.60;100.00;100167.97;5031452;28;20494;-79
2022/09/23 01:51:23;;;;;;;8.77;5.57;;;;;;;5.59;100.00;100166.28;5031659;28;20183;-79
2022/09/23 01:53:59;;;;;;;6.65;5.13;;;;;;;5.55;100.00;100162.03;4972621;28;20520;-79
2022/09/23 01:56:28;;;;;;;7.60;5.90;;;;;;;5.56;100.00;100167.19;4972383;28;20114;-79
2022/09/23 01:59:00;;;;;;;7.57;5.72;;;;;;;5.47;100.00;100154.44;4972681;28;20409;-79
2022/09/23 02:01:40;;;;;;;6.80;5.20;;;;;;;5.51;100.00;100167.25;5013922;28;20179;-79
2022/09/23 02:04:16;;;;;;;6.57;5.38;;;;;;;5.37;100.00;100145.16;5051481;28;20041;-79
2022/09/23 02:06:47;;;;;;;6.90;5.38;;;;;;;5.39;100.00;100151.97;5051107;28;20045;-79
2022/09/23 02:09:17;;;;;;;6.57;4.80;;;;;;;5.37;100.00;100153.75;5050955;28;20024;-79
2022/09/23 02:11:47;;;;;;;9.37;5.40;;;;;;;5.42;100.00;100158.84;5051204;28;20040;-79
2022/09/23 02:14:26;;;;;;;8.50;5.50;;;;;;;5.38;100.00;100163.19;5050920;28;20480;-79
2022/09/23 02:16:55;;;;;;;7.80;5.53;;;;;;;5.26;100.00;100147.91;5050769;28;20481;-79
2022/09/23 02:19:31;;;;;;;6.53;5.45;;;;;;;5.32;100.00;100165.91;5050669;28;20032;-79
2022/09/23 02:22:06;;;;;;;8.02;5.60;;;;;;;5.26;100.00;100147.91;5051120;28;20032;-79
2022/09/23 02:24:36;;;;;;;7.55;5.55;;;;;;;5.28;100.00;100150.47;5050456;28;20068;-79
2022/09/23 02:27:22;;;;;;;8.77;5.95;;;;;;;5.32;100.00;100159.88;5050657;28;20079;-79
2022/09/23 02:30:03;;;;;;;7.88;5.72;;;;;;;5.26;100.00;100158.22;5060433;28;20373;-79
2022/09/23 02:32:57;;;;;;;6.82;5.82;;;;;;;5.23;100.00;100163.47;5093415;28;20099;-79
2022/09/23 02:35:35;;;;;;;6.45;5.20;;;;;;;5.17;100.00;100148.06;5093062;28;20376;-79
2022/09/23 02:38:19;;;;;;;6.70;5.93;;;;;;;5.20;100.00;100158.34;5093176;28;20595;-79
2022/09/23 02:41:08;;;;;;;7.15;5.55;;;;;;;5.16;100.00;100154.09;5093371;28;20357;-79
2022/09/23 02:43:50;;;;;;;7.43;5.38;;;;;;;5.09;100.00;100148.19;5093131;28;20089;-79
2022/09/23 02:46:16;;;;;;;6.18;5.00;;;;;;;5.02;100.00;100140.59;5092935;28;20020;-79
2022/09/23 02:48:55;;;;;;;7.32;5.97;;;;;;;5.01;100.00;100147.44;5093004;28;20028;-79
2022/09/23 02:51:24;;;;;;;8.07;6.13;;;;;;;5.02;100.00;100156.91;5092920;28;20095;-79
2022/09/23 02:53:50;;;;;;;6.88;5.35;;;;;;;4.98;100.00;100150.09;5092785;28;20012;-79
2022/09/23 02:56:19;;;;;;;8.35;5.97;;;;;;;5.01;100.00;100144.88;5092600;28;20106;-79
2022/09/23 02:58:46;;;;;;;9.88;6.30;;;;;;;5.03;100.00;100157.78;5092722;28;20465;-79
2022/09/23 03:01:36;;;;;;;7.40;5.90;;;;;;;5.02;100.00;100151.75;5092952;28;20023;-79
2022/09/23 03:04:20;;;;;;;8.27;6.50;;;;;;;4.97;100.00;100138.94;5092833;28;20376;-79
2022/09/23 03:06:57;;;;;;;8.20;6.85;;;;;;;4.97;100.00;100156.13;5092835;28;20047;-79
2022/09/23 03:09:47;;;;;;;9.73;6.88;;;;;;;4.88;100.00;100127.88;5091691;28;20024;-79
2022/09/23 03:12:20;;;;;;;8.02;6.47;;;;;;;4.94;100.00;100144.13;5092720;28;20077;-79
2022/09/23 03:15:14;;;;;;;8.30;6.65;;;;;;;4.94;100.00;100151.03;5092644;28;20506;-79
2022/09/23 03:17:48;;;;;;;11.40;6.15;;;;;;;4.94;100.00;100138.13;5029929;28;20466;-80
2022/09/23 03:20:27;;;;;;;9.23;7.32;;;;;;;4.70;100.00;100113.53;5030142;28;20040;-79
2022/09/23 03:22:59;;;;;;;8.98;6.28;;;;;;;4.84;100.00;100129.66;5029911;28;20068;-79
2022/09/23 03:25:28;;;;;;;8.68;6.70;;;;;;;4.88;100.00;100139.03;5029639;28;20032;-79
2022/09/23 03:27:56;;;;;;;7.20;6.20;;;;;;;4.83;100.00;100134.84;5029776;28;20033;-79
2022/09/23 03:30:22;;;;;;;10.43;6.35;;;;;;;4.78;100.00;100124.59;5029630;28;20124;-79
2022/09/23 03:32:50;;;;;;;9.25;7.05;;;;;;;4.86;100.00;100129.63;5029744;28;20451;-79
2022/09/23 03:35:16;;;;;;;9.40;6.40;;;;;;;4.82;100.00;100126.25;5029491;28;20025;-79
2022/09/23 03:37:55;;;;;;;8.23;6.85;;;;;;;4.80;100.00;100120.25;5029749;28;20055;-79
2022/09/23 03:40:28;;;;;;;8.70;6.80;;;;;;;4.79;100.00;100121.13;5029263;28;20116;-79
2022/09/23 03:42:56;;;;;;;11.80;6.35;;;;;;;4.82;100.00;100128.84;5029487;28;20124;-79
2022/09/23 03:45:26;;;;;;;8.20;6.68;;;;;;;4.81;100.00;100126.28;5029343;28;20028;-79
2022/09/23 03:47:51;;;;;;;10.47;6.63;;;;;;;4.72;100.00;100112.66;5029827;28;20123;-79
2022/09/23 03:50:17;;;;;;;8.20;6.75;;;;;;;4.73;100.00;100111.75;5029278;28;20269;-79
2022/09/23 03:52:43;;;;;;;8.57;6.55;;;;;;;4.82;100.00;100122.81;5029495;28;20133;-79
2022/09/23 03:55:10;;;;;;;8.10;6.35;;;;;;;4.83;100.00;100115.03;5076225;28;20388;-79
2022/09/23 03:57:36;;;;;;;14.43;11.43;;;;;;;4.84;100.00;100115.91;5091680;28;20361;-79
2022/09/23 04:00:03;;;;;;;11.90;9.18;;;;;;;4.83;100.00;100117.63;5091914;28;20032;-79
2022/09/23 04:02:29;;;;;;;10.02;8.23;;;;;;;4.80;100.00;100107.34;5091849;28;20483;-79
2022/09/23 04:04:54;;;;;;;9.70;8.35;;;;;;;4.73;100.00;100108.34;5091892;28;20024;-79
2022/09/23 04:07:20;;;;;;;9.05;6.68;;;;;;;4.69;100.00;100094.63;5091973;28;20036;-79
2022/09/23 04:09:45;;;;;;;7.40;5.90;;;;;;;4.71;100.00;100110.91;5091632;28;20023;-79
2022/09/23 04:12:14;;;;;;;7.97;6.00;;;;;;;4.74;100.00;100115.19;5091914;28;20028;-79
2022/09/23 04:14:40;;;;;;;8.57;5.88;;;;;;;4.72;100.00;100109.22;5091456;28;20020;-79
2022/09/23 04:17:05;;;;;;;8.13;5.80;;;;;;;4.71;100.00;100104.91;5091860;28;20027;-79
2022/09/23 04:19:31;;;;;;;12.48;6.60;;;;;;;4.72;100.00;100098.91;5091538;28;20016;-79
2022/09/23 04:21:56;;;;;;;8.15;5.47;;;;;;;4.67;100.00;100100.66;5095459;28;20027;-79
2022/09/23 04:24:21;;;;;;;7.75;5.80;;;;;;;4.72;100.00;100115.22;5095709;28;20108;-79
2022/09/23 04:26:51;;;;;;;7.13;5.88;;;;;;;4.71;100.00;100110.91;5096220;28;20125;-79
2022/09/23 04:29:16;;;;;;;9.15;6.00;;;;;;;4.71;100.00;100110.91;5098270;28;20024;-79
2022/09/23 04:31:42;;;;;;;10.30;5.68;;;;;;;4.63;100.00;100091.28;5095539;28;20039;-79
2022/09/23 04:34:08;;;;;;;6.75;5.47;;;;;;;4.68;100.00;100103.25;5095618;28;20110;-79
2022/09/23 04:36:33;;;;;;;9.70;8.52;;;;;;;4.74;100.00;100112.63;5095329;28;20024;-79
2022/09/23 04:38:59;;;;;;;9.45;7.68;;;;;;;4.74;100.00;100116.03;5095413;28;20123;-79
2022/09/23 04:41:25;;;;;;;11.32;6.97;;;;;;;4.74;100.00;100112.63;5095552;28;20019;-79
2022/09/23 04:43:51;;;;;;;9.38;7.10;;;;;;;4.74;100.00;100115.19;5095584;28;20039;-79
2022/09/23 04:46:16;;;;;;;8.25;6.57;;;;;;;4.71;100.00;100097.16;5095398;28;20024;-79
2022/09/23 04:48:42;;;;;;;7.22;6.43;;;;;;;4.69;100.00;100107.53;5094766;28;20028;-79
2022/09/23 04:51:16;;;;;;;6.82;6.13;;;;;;;4.64;100.00;100101.59;5095361;28;20034;-79
2022/09/23 04:53:44;;;;;;;8.23;6.78;;;;;;;4.75;100.00;100122.91;5094950;28;20465;-79
2022/09/23 04:56:12;;;;;;;7.03;6.25;;;;;;;4.55;100.00;100080.22;5095424;28;20399;-79
2022/09/23 04:58:38;;;;;;;8.60;6.72;;;;;;;4.73;100.00;100093.69;5094997;28;20338;-79
2022/09/23 05:01:11;;;;;;;11.80;6.68;;;;;;;4.75;100.00;100104.84;5095340;28;20107;-79
2022/09/23 05:03:37;;;;;;;10.13;6.50;;;;;;;4.79;100.00;100103.06;5094698;28;20100;-79
2022/09/23 05:06:03;;;;;;;10.55;7.65;;;;;;;4.86;100.00;100099.53;5094668;28;20097;-79
2022/09/23 05:08:29;;;;;;;11.23;6.97;;;;;;;4.90;100.00;100101.19;5095098;28;20032;-79
2022/09/23 05:10:58;;;;;;;10.68;7.55;;;;;;;5.04;100.00;100119.00;5095197;28;20035;-79
2022/09/23 05:13:24;;;;;;;9.25;7.82;;;;;;;5.11;100.00;100104.28;5094847;28;20098;-79
2022/09/23 05:15:56;;;;;;;9.55;7.03;;;;;;;5.31;100.00;100114.25;5095020;28;20114;-79
2022/09/23 05:18:22;;;;;;;8.93;6.70;;;;;;;5.48;100.00;100110.50;5094748;28;20020;-79
2022/09/23 05:20:53;;;;;;;8.95;6.97;;;;;;;5.65;100.00;100099.84;5093374;28;20016;-80
2022/09/23 05:23:18;;;;;;;10.35;6.53;;;;;;;5.89;100.00;100114.00;5094975;28;20102;-79
2022/09/23 05:25:44;;;;;;;12.80;6.88;;;;;;;6.06;100.00;100097.31;5094720;28;20521;-80
2022/09/23 05:28:09;;;;;;;7.68;6.10;;;;;;;6.32;100.00;100117.44;5094705;28;20020;-79
2022/09/23 05:30:34;;;;;;;8.13;6.78;;;;;;;6.49;100.00;100117.97;5094112;28;20464;-79
2022/09/23 05:33:01;;;;;;;12.20;7.05;;;;;;;6.73;100.00;100124.28;5094440;28;20465;-79
2022/09/23 05:35:27;;;;;;;15.35;6.70;;;;;;;6.91;100.00;100118.69;5094286;28;20020;-80
2022/09/23 05:37:52;;;;;;;9.88;6.40;;;;;;;7.05;100.00;100117.50;5094553;28;20078;-80
2022/09/23 05:40:17;;;;;;;6.97;5.70;;;;;;;7.21;100.00;100109.31;5094571;28;20054;-80
2022/09/23 05:42:42;;;;;;;10.60;6.05;;;;;;;7.34;100.00;100121.97;5093994;28;20087;-80
2022/09/23 05:45:08;;;;;;;9.10;5.95;;;;;;;7.49;100.00;100106.00;5094387;28;20453;-80
2022/09/23 05:47:33;;;;;;;9.43;8.10;;;;;;;7.75;100.00;100113.06;5093930;28;20039;-80
2022/09/23 05:49:59;;;;;;;8.48;6.13;;;;;;;7.99;100.00;100114.13;5094384;28;20027;-80
2022/09/23 05:52:24;;;;;;;9.07;6.60;;;;;;;8.32;100.00;100132.19;5094344;28;20012;-80
2022/09/23 05:54:50;;;;;;;11.90;6.25;;;;;;;8.55;100.00;100123.75;5093958;28;20066;-80
2022/09/23 05:57:15;;;;;;;6.90;5.40;;;;;;;8.79;100.00;100111.75;5093898;28;20057;-80
2022/09/23 05:59:46;;;;;;;9.90;5.50;;;;;;;9.08;100.00;100121.19;5093715;28;20031;-80
2022/09/23 06:02:11;;;;;;;8.35;5.50;;;;;;;9.24;100.00;100112.84;5093771;28;20020;-81
2022/09/23 06:04:36;;;;;;;8.45;6.00;;;;;;;9.56;100.00;100123.03;5093432;28;20467;-80
2022/09/23 06:07:02;;;;;;;8.07;5.35;;;;;;;9.73;99.03;100116.34;5093857;28;20529;-80
2022/09/23 06:09:27;;;;;;;6.00;5.35;;;;;;;10.00;98.20;100117.09;5093677;28;20465;-80
2022/09/23 06:11:53;;;;;;;14.75;8.32;;;;;;;10.44;96.45;100114.59;5093698;28;20346;-80
2022/09/23 06:14:18;;;;;;;23.77;13.63;;;;;;;11.39;93.15;100118.56;5093664;28;20435;-80
2022/09/23 06:16:43;;;;;;;24.23;15.30;;;;;;;11.70;90.81;100117.25;5093371;28;20024;-81
2022/09/23 06:19:09;;;;;;;22.95;13.90;;;;;;;11.76;90.02;100106.56;5093523;28;20085;-80
2022/09/23 06:21:37;;;;;;;12.55;10.13;;;;;;;11.90;89.25;100114.63;5093444;28;20027;-79
2022/09/23 06:24:05;;;;;;;12.07;9.18;;;;;;;12.61;88.27;100119.25;5093810;28;20035;-79
2022/09/23 06:26:33;;;;;;;14.68;9.73;;;;;;;12.85;86.19;100106.75;5093316;28;20127;-79
2022/09/23 06:29:01;;;;;;;9.82;7.78;;;;;;;13.09;85.71;100118.63;5093487;28;20020;-79
2022/09/23 06:31:27;;;;;;;7.43;5.97;;;;;;;13.37;85.25;100128.59;5093497;28;20402;-79
2022/09/23 06:33:53;;;;;;;9.95;8.90;;;;;;;14.70;82.53;100116.25;5093449;28;20028;-79
2022/09/23 06:36:18;;;;;;;9.65;8.13;;;;;;;15.85;76.03;100124.47;5093428;28;20532;-79
2022/09/23 06:38:44;;;;;;;10.35;6.53;;;;;;;15.78;75.49;100120.53;5092936;28;20467;-79
2022/09/23 06:41:10;;;;;;;7.28;5.75;;;;;;;15.66;75.20;100124.72;5093246;28;20028;-79
2022/09/23 06:43:36;;;;;;;7.97;5.85;;;;;;;15.83;74.63;100131.59;5091945;28;20468;-79
2022/09/23 06:46:04;;;;;;;8.77;7.50;;;;;;;15.98;73.75;100121.94;5093115;28;20028;-79
2022/09/23 06:48:33;;;;;;;9.40;6.40;;;;;;;16.09;74.01;100132.63;5093221;28;20012;-79
2022/09/23 06:51:01;;;;;;;9.35;6.93;;;;;;;16.10;72.81;100124.66;5093121;28;20028;-79
2022/09/23 06:53:30;;;;;;;8.80;6.88;;;;;;;16.13;72.03;100134.13;5093002;28;20019;-79
2022/09/23 06:56:01;;;;;;;11.10;6.97;;;;;;;16.32;71.84;100131.22;5092886;28;20016;-79
2022/09/23 06:58:27;;;;;;;8.35;6.95;;;;;;;16.43;71.33;100118.22;5091506;28;20020;-79
2022/09/23 07:00:53;;;;;;;9.07;6.95;;;;;;;16.76;69.20;100127.56;5092856;28;20019;-79
2022/09/23 07:03:20;;;;;;;8.73;6.88;;;;;;;16.45;68.47;100124.22;5092927;28;20024;-80
2022/09/23 07:05:46;;;;;;;8.88;6.82;;;;;;;15.90;68.59;100138.19;5092344;28;20027;-79
2022/09/23 07:08:11;;;;;;;10.20;6.93;;;;;;;16.05;69.60;100134.59;5092640;28;20020;-79
2022/09/23 07:10:37;;;;;;;10.15;7.32;;;;;;;16.56;69.54;100119.16;5092619;28;20035;-79
2022/09/23 07:13:03;;;;;;;8.68;6.40;;;;;;;17.50;67.12;100131.44;5092546;28;20038;-79
2022/09/23 07:15:29;;;;;;;9.27;6.95;;;;;;;20.84;60.16;100133.88;5092718;28;20031;-79
2022/09/23 07:17:55;;;;;;;8.25;6.82;;;;;;;23.00;54.70;100136.53;5092497;28;20020;-79
2022/09/23 07:20:20;;;;;;;7.30;6.07;;;;;;;24.89;50.00;100120.34;5092581;28;20020;-79
2022/09/23 07:22:51;;;;;;;7.20;6.28;;;;;;;25.13;48.07;100131.28;5092569;28;20027;-79
2022/09/23 07:25:16;;;;;;;;;;;;;;;26.17;47.45;100125.13;5093034;28;20111;-80
2022/09/23 07:27:42;;;;;;;8.13;6.15;;;;;;;27.46;44.52;100122.88;5092083;28;19990;-79
2022/09/23 07:30:07;;;;;;;11.00;6.80;;;;;;;26.93;44.71;100118.03;5092637;28;20024;-79
2022/09/23 07:32:33;;;;;;;8.27;5.93;;;;;;;25.94;46.51;100113.34;5092364;28;20023;-79
2022/09/23 07:34:58;;;;;;;9.00;6.70;;;;;;;26.23;47.30;100121.81;5092406;28;20099;-79
2022/09/23 07:37:23;;;;;;;7.03;6.15;;;;;;;27.14;45.61;100110.38;5092357;28;20338;-79
2022/09/23 07:39:49;;;;;;;10.48;6.35;;;;;;;28.71;42.71;100105.22;5094339;28;20644;-80
2022/09/23 07:42:15;;;;;;;11.65;6.75;;;;;;;29.97;39.57;100111.84;5094531;28;20035;-79
2022/09/23 07:44:46;;;;;;;9.00;6.63;;;;;;;27.41;41.49;100111.84;5100023;28;20023;-80
2022/09/23 07:47:12;;;;;;;13.30;6.68;;;;;;;24.95;45.96;100117.09;5101000;28;20027;-79
2022/09/23 07:49:37;;;;;;;9.40;7.30;;;;;;;23.03;48.64;100109.69;5101774;28;20023;-79
2022/09/23 07:52:03;;;;;;;7.35;6.60;;;;;;;21.25;52.52;100111.91;5099986;28;20472;-79
2022/09/23 07:54:29;;;;;;;10.25;6.93;;;;;;;19.86;56.22;100118.69;5108489;28;20019;-79
2022/09/23 07:56:54;;;;;;;9.23;7.35;;;;;;;18.86;59.08;100117.44;5111743;28;20020;-79
2022/09/23 07:59:20;;;;;;;10.18;7.47;;;;;;;18.14;61.04;100088.31;5112518;28;20012;-79
2022/09/23 08:01:48;;;;;;;9.93;6.80;;;;;;;17.88;62.16;100103.34;5092630;28;20433;-79
2022/09/23 08:04:16;;;;;;;9.45;7.22;;;;;;;17.75;63.85;100110.41;5091730;28;20556;-79
2022/09/23 08:06:47;;;;;;;11.13;7.72;;;;;;;17.44;63.79;100087.91;5091545;28;20036;-79
2022/09/23 08:09:14;;;;;;;10.02;6.95;;;;;;;17.10;64.46;100091.97;5091862;28;20030;-79
2022/09/23 08:11:40;;;;;;;9.70;7.68;;;;;;;16.85;65.67;100087.50;5091444;28;20457;-79
2022/09/23 08:14:16;;;;;;;8.55;7.60;;;;;;;16.86;67.33;100094.47;5094031;28;20028;-78
2022/09/23 08:16:44;;;;;;;9.57;7.05;;;;;;;16.72;68.49;100097.94;5103289;28;20464;-79
2022/09/23 08:19:10;;;;;;;9.18;6.97;;;;;;;16.66;69.04;100098.34;5100112;28;20099;-79
2022/09/23 08:21:37;;;;;;;10.80;7.57;;;;;;;16.59;68.83;100102.31;5100738;28;20028;-80
2022/09/23 08:24:03;;;;;;;9.45;7.57;;;;;;;16.54;69.10;100107.03;5099728;28;20039;-80
2022/09/23 08:26:30;;;;;;;10.52;7.05;;;;;;;16.51;69.62;100109.84;5101328;28;20023;-80
2022/09/23 08:28:55;;;;;;;7.93;6.82;;;;;;;16.30;70.02;100098.91;5091589;28;20020;-80
2022/09/23 08:31:22;;;;;;;9.25;7.32;;;;;;;16.27;69.52;100092.06;5091878;28;20028;-80
2022/09/23 08:33:52;;;;;;;10.20;6.57;;;;;;;16.13;70.24;100089.44;5096152;28;20462;-80
2022/09/23 08:36:17;;;;;;;9.63;6.78;;;;;;;16.16;70.67;100097.16;5108922;28;20103;-78
2022/09/23 08:38:42;;;;;;;9.77;6.47;;;;;;;16.11;70.87;100100.06;5111981;28;20115;-79
2022/09/23 08:41:32;;;;;;;9.07;7.07;;;;;;;16.06;71.31;100106.56;5112114;28;20024;-78
2022/09/23 08:44:02;;;;;;;10.10;7.50;;;;;;;15.91;71.18;100096.03;5111831;28;20537;-79
2022/09/23 08:46:35;;;;;;;11.70;7.80;;;;;;;15.95;71.28;100104.59;5111929;28;20048;-79
2022/09/23 08:49:01;;;;;;;9.60;7.38;;;;;;;15.88;71.18;100087.50;5111795;28;20407;-79
2022/09/23 08:51:45;;;;;;;10.25;7.78;;;;;;;15.83;71.93;100081.69;5112159;28;20036;-79
2022/09/23 08:54:11;;;;;;;9.75;7.35;;;;;;;15.84;72.06;100086.84;5111876;28;20020;-79
2022/09/23 08:56:37;;;;;;;11.05;7.38;;;;;;;15.84;72.48;100086.84;5111730;28;20027;-79
2022/09/23 08:59:16;;;;;;;9.60;7.13;;;;;;;15.85;72.38;100106.09;5112108;28;20034;-78
2022/09/23 09:01:55;;;;;;;9.85;6.60;;;;;;;15.79;72.62;100096.78;5111962;28;20101;-79
2022/09/23 09:04:41;;;;;;;10.88;6.70;;;;;;;15.74;72.91;100093.59;5111908;28;20023;-79
2022/09/23 09:07:07;;;;;;;8.15;5.90;;;;;;;15.72;72.46;100095.50;5114273;28;20032;-79
2022/09/23 09:09:38;;;;;;;8.25;6.30;;;;;;;15.69;72.30;100090.41;5115492;28;20047;-79
2022/09/23 09:12:15;;;;;;;6.45;5.05;;;;;;;15.66;70.84;100088.81;5115621;28;20456;-79
2022/09/23 09:14:52;;;;;;;7.85;5.32;;;;;;;15.72;70.53;100100.75;5115356;28;20503;-79
2022/09/23 09:17:37;;;;;;;5.47;4.80;;;;;;;15.69;70.75;100091.25;5115390;28;20058;-79
2022/09/23 09:20:17;;;;;;;5.75;3.70;;;;;;;15.67;69.70;100098.41;5115266;28;20030;-79
2022/09/23 09:22:58;;;;;;;5.95;3.25;;;;;;;15.57;69.17;100076.22;5115135;28;20031;-79
2022/09/23 09:25:39;;;;;;;4.22;3.60;;;;;;;15.60;69.58;100096.19;5115197;28;20364;-79
2022/09/23 09:28:45;;;;;;;6.43;4.03;;;;;;;15.59;71.02;100105.88;5115097;28;20039;-79
2022/09/23 09:31:36;;;;;;;6.00;4.43;;;;;;;15.55;71.16;100101.72;5113936;28;20055;-79
2022/09/23 09:34:15;;;;;;;5.10;3.78;;;;;;;15.52;70.45;100099.28;5115029;28;20460;-79
2022/09/23 09:37:04;;;;;;;4.85;3.45;;;;;;;15.49;71.01;100088.97;5114670;28;20027;-79
2022/09/23 09:39:29;;;;;;;5.50;3.75;;;;;;;15.54;70.57;100091.31;5114941;28;20160;-79
2022/09/23 09:41:58;;;;;;;5.10;3.15;;;;;;;15.53;70.89;100087.00;5114610;28;20094;-79
2022/09/23 09:44:35;;;;;;;4.32;3.22;;;;;;;15.53;69.80;100087.00;5114680;27;20046;-79
2022/09/23 09:47:31;;;;;;;4.13;2.35;;;;;;;15.59;69.20;100092.75;5114385;28;20031;-79
2022/09/23 09:50:10;;;;;;;3.08;2.75;;;;;;;15.55;67.74;100085.09;5114534;28;20110;-79
2022/09/23 09:52:36;;;;;;;3.42;2.40;;;;;;;15.53;67.71;100081.75;5114630;28;20525;-79
2022/09/23 09:55:25;;;;;;;2.70;1.90;;;;;;;15.63;67.50;100081.13;5114213;28;20024;-79
2022/09/23 09:58:02;;;;;;;1.70;1.60;;;;;;;15.64;67.15;100074.06;5114664;28;20030;-81
2022/09/23 10:00:29;;;;;;;2.55;2.10;;;;;;;15.70;67.07;100081.59;5114619;28;20460;-79
2022/09/23 10:02:54;;;;;;;2.22;2.03;;;;;;;15.63;64.32;100081.13;5114073;28;20411;-79
2022/09/23 10:05:30;;;;;;;2.72;2.17;;;;;;;15.43;63.13;100071.81;5114154;28;20026;-79
2022/09/23 10:08:34;;;;;;;3.45;2.25;;;;;;;15.28;63.56;100064.00;5113866;28;20503;-79
2022/09/23 10:11:14;;;;;;;2.42;2.20;;;;;;;15.37;64.66;100072.16;5113906;28;20039;-79
2022/09/23 10:13:39;;;;;;;2.25;2.00;;;;;;;15.46;65.65;100066.38;5114087;28;20026;-80
2022/09/23 10:16:06;;;;;;;1.98;1.85;;;;;;;15.51;65.30;100052.97;5114231;28;20487;-80
2022/09/23 10:18:46;;;;;;;3.67;2.10;;;;;;;15.74;65.96;100069.97;5113793;28;20047;-79
2022/09/23 10:21:19;;;;;;;2.85;2.00;;;;;;;15.81;64.76;100060.78;5114097;28;20019;-80
2022/09/23 10:23:50;;;;;;;3.70;2.03;;;;;;;15.81;65.01;100054.69;5113896;28;20023;-80
2022/09/23 10:26:17;;;;;;;2.72;2.25;;;;;;;15.82;65.54;100062.47;5113894;28;20023;-79
2022/09/23 10:28:58;;;;;;;4.82;2.65;;;;;;;15.98;65.62;100048.38;5113523;28;20076;-80
2022/09/23 10:31:26;;;;;;;2.30;1.85;;;;;;;16.16;63.99;100034.09;5114004;28;20374;-80
2022/09/23 10:33:59;;;;;;;5.93;1.77;;;;;;;16.33;63.96;100049.63;5113429;27;20026;-80
2022/09/23 10:36:29;;;;;;;3.80;1.88;;;;;;;16.18;63.37;100026.94;5113766;28;20020;-79
2022/09/23 10:46:37;;;;;;;1.30;1.20;;;;;;;16.14;60.30;100039.44;5113572;28;20027;-80
2022/09/23 10:47:42;;;;;;;2.35;2.10;;;;;;;15.82;62.02;100016.97;5113600;28;20031;-79
2022/09/23 10:50:36;;;;;;;2.50;2.05;;;;;;;15.91;63.42;100011.97;5113754;28;20360;-79
2022/09/23 10:53:11;;;;;;;2.08;1.70;;;;;;;15.87;61.36;100002.59;5113435;28;20024;-79
2022/09/23 10:55:50;;;;;;;1.60;1.50;;;;;;;16.03;62.39;100020.03;5113324;28;20111;-79
2022/09/23 10:58:30;;;;;;;1.50;1.40;;;;;;;16.08;61.87;100020.59;5113156;28;20527;-79
2022/09/23 11:01:04;;;;;;;2.57;1.83;;;;;;;16.03;58.17;100018.25;5113424;28;20027;-79
2022/09/23 11:03:57;;;;;;;3.70;2.50;;;;;;;15.91;60.36;100011.97;5113206;28;20015;-79
2022/09/23 11:06:56;;;;;;;3.22;1.90;;;;;;;15.85;58.43;100016.78;5113046;28;20047;-79
2022/09/23 11:09:39;;;;;;;5.05;2.40;;;;;;;15.95;60.47;99999.50;5113236;28;20063;-79
2022/09/23 11:12:34;;;;;;;2.88;2.15;;;;;;;16.15;58.80;100008.75;5112724;28;20031;-79
2022/09/23 11:15:18;;;;;;;2.42;2.20;;;;;;;16.05;59.06;99989.25;5112884;28;20068;-79
2022/09/23 11:18:06;;;;;;;4.88;2.03;;;;;;;16.24;60.36;99994.19;5112946;28;20023;-79
2022/09/23 11:20:41;;;;;;;2.92;2.28;;;;;;;16.38;60.26;99981.81;5112967;28;20011;-80
2022/09/23 11:23:20;;;;;;;4.00;2.78;;;;;;;16.57;59.65;99991.97;5112582;28;20031;-80
2022/09/23 11:26:07;;;;;;;3.47;2.20;;;;;;;16.62;60.42;99989.88;5112781;28;20084;-80
2022/09/23 11:28:54;;;;;;;3.10;2.33;;;;;;;16.69;60.10;99991.16;5104173;28;20074;-79
2022/09/23 11:31:31;;;;;;;3.55;2.40;;;;;;;16.77;60.13;99988.06;5097344;28;20074;-79
2022/09/23 11:34:18;;;;;;;3.42;2.80;;;;;;;16.80;60.01;99982.56;5110672;28;20477;-80
2022/09/23 11:36:51;;;;;;;3.10;2.50;;;;;;;16.81;60.30;99965.88;5113052;28;20103;-80
2022/09/23 11:39:22;;;;;;;4.05;2.40;;;;;;;16.90;59.27;99973.13;5112656;28;20020;-79
2022/09/23 11:41:51;;;;;;;2.13;1.73;;;;;;;16.87;58.58;99969.88;5102428;28;20032;-80
2022/09/23 11:44:19;;;;;;;4.07;2.38;;;;;;;16.54;57.44;99967.66;5112819;28;20031;-79
2022/09/23 11:46:51;;;;;;;3.40;2.50;;;;;;;16.42;58.56;99954.38;5112377;28;20023;-80
2022/09/23 11:49:25;;;;;;;2.95;2.03;;;;;;;16.28;57.30;99959.72;5112662;28;20360;-79